Data for 11/17/2016

Time Sea-Level Adjusted Pressure Absolute Pressure Temperature Relative Humidity Dew Point   
(mb) (inHg) (mb) (inHg) (C) (F) (%) (C) (F)
00:05 1014 29.94 843 24.89 -1.8 28.8 80 -4.7 23.5
00:10 1014 29.94 843 24.89 -1.7 28.9 76 -5.5 22.1
00:15 1014 29.94 843 24.89 -1.6 29.2 79 -4.8 23.4
00:20 1014 29.94 843 24.89 -1.5 29.4 79 -4.7 23.5
00:25 1014 29.94 843 24.89 -1.4 29.4 78 -4.8 23.4
00:30 1014 29.94 843 24.89 -1.5 29.4 78 -4.9 23.2
00:35 1014 29.94 843 24.89 -1.4 29.5 77 -5 23
00:40 1014 29.94 843 24.89 -1.5 29.3 76 -5.2 22.6
00:45 1014 29.94 843 24.89 -1.6 29.2 77 -5.1 22.9
00:50 1014 29.94 843 24.89 -1.7 29 76 -5.4 22.3
00:55 1014 29.94 843 24.89 -1.7 28.9 75 -5.6 22
01:00 1014 29.94 843 24.89 -1.8 28.8 75 -5.6 22
01:05 1014 29.94 843 24.89 -1.8 28.8 75 -5.6 21.9
01:10 1014 29.94 843 24.89 -1.7 28.9 74 -5.8 21.5
01:15 1014 29.94 843 24.89 -1.7 28.9 74 -5.8 21.6
01:20 1014 29.94 843 24.89 -1.7 29 74 -5.8 21.5
01:25 1014 29.94 843 24.89 -1.6 29 73 -5.8 21.6
01:30 1014 29.94 843 24.89 -1.6 29.1 74 -5.7 21.7
01:35 1014 29.94 843 24.89 -1.6 29.2 73 -5.8 21.5
01:40 1014 29.94 843 24.89 -1.5 29.2 73 -5.7 21.7
01:45 1014 29.94 844 24.92 -1.5 29.2 73 -5.7 21.7
01:50 1014 29.94 843 24.89 -1.6 29.2 73 -5.9 21.5
01:55 1014 29.94 843 24.89 -1.5 29.2 74 -5.7 21.8
02:00 1014 29.94 843 24.89 -1.5 29.3 73 -5.7 21.8
02:05 1014 29.94 844 24.92 -1.6 29.2 72 -5.9 21.4
02:10 1014 29.94 844 24.92 -1.6 29.2 73 -5.8 21.6
02:15 1014 29.94 844 24.92 -1.5 29.2 74 -5.7 21.8
02:20 1015 29.97 844 24.92 -1.5 29.3 73 -5.7 21.7
02:25 1015 29.97 844 24.92 -1.5 29.3 73 -5.8 21.5
02:30 1015 29.97 844 24.92 -1.6 29.2 73 -5.7 21.7
02:35 1015 29.97 844 24.92 -1.6 29.1 73 -5.7 21.7
02:40 1015 29.97 844 24.92 -1.6 29.1 74 -5.7 21.8
02:45 1015 29.97 844 24.92 -1.6 29.1 74 -5.7 21.7
02:50 1015 29.97 844 24.92 -1.6 29.1 74 -5.6 21.9
02:55 1015 29.97 844 24.92 -1.6 29.1 74 -5.6 21.9
03:00 1015 29.97 844 24.92 -1.6 29.2 74 -5.6 22
03:05 1015 29.97 844 24.92 -1.6 29.2 74 -5.7 21.8
03:10 1015 29.97 844 24.92 -1.6 29.2 75 -5.5 22.1
03:15 1015 29.97 844 24.92 -1.5 29.2 73 -5.7 21.8
03:20 1015 29.97 844 24.92 -1.5 29.2 74 -5.7 21.8
03:25 1015 29.97 844 24.92 -1.5 29.3 72 -5.8 21.5
03:30 1015 29.97 844 24.92 -1.5 29.3 73 -5.8 21.6
03:35 1015 29.97 844 24.92 -1.5 29.4 73 -5.7 21.7
03:40 1015 29.97 844 24.92 -1.5 29.4 73 -5.8 21.6
03:45 1015 29.97 844 24.92 -1.5 29.4 73 -5.6 21.8
03:50 1015 29.97 844 24.92 -1.5 29.4 73 -5.6 21.9
03:55 1015 29.97 844 24.92 -1.5 29.4 73 -5.8 21.6
04:00 1015 29.97 844 24.92 -1.5 29.3 72 -5.9 21.4
04:05 1015 29.97 844 24.92 -1.5 29.3 73 -5.8 21.6
04:10 1015 29.97 844 24.92 -1.5 29.2 73 -5.9 21.5
04:15 1015 29.97 844 24.92 -1.6 29.2 73 -5.8 21.6
04:20 1015 29.97 844 24.92 -1.6 29.1 74 -5.7 21.7
04:25 1015 29.97 844 24.92 -1.7 29 73 -5.9 21.5
04:30 1015 29.97 844 24.92 -1.6 29 74 -5.8 21.6
04:35 1015 29.97 844 24.92 -1.7 29 74 -5.8 21.6
04:40 1015 29.97 844 24.92 -1.7 29 73 -5.8 21.5
04:45 1015 29.97 844 24.92 -1.7 29 74 -5.8 21.6
04:50 1015 29.97 844 24.92 -1.7 29 74 -5.8 21.6
04:55 1015 29.97 844 24.92 -1.7 28.9 74 -5.8 21.6
05:00 1015 29.97 844 24.92 -1.7 28.9 74 -5.8 21.5
05:05 1015 29.97 845 24.95 -1.7 28.9 74 -5.8 21.6
05:10 1015 29.97 845 24.95 -1.8 28.8 74 -5.8 21.6
05:15 1015 29.97 845 24.95 -1.8 28.8 74 -5.8 21.5
05:20 1015 29.97 845 24.95 -1.7 28.9 73 -5.9 21.4
05:25 1015 29.97 845 24.95 -1.8 28.8 73 -5.9 21.3
05:30 1015 29.97 845 24.95 -1.8 28.7 75 -5.7 21.7
05:35 1015 29.97 845 24.95 -1.8 28.7 75 -5.7 21.8
05:40 1015 29.97 845 24.95 -1.9 28.7 75 -5.8 21.6
05:45 1015 29.97 845 24.95 -1.8 28.7 75 -5.7 21.7
05:50 1016 30 845 24.95 -1.9 28.6 75 -5.8 21.6
05:55 1016 30 845 24.95 -1.9 28.6 75 -5.8 21.6
06:00 1016 30 845 24.95 -1.9 28.6 75 -5.7 21.8
06:05 1016 30 845 24.95 -1.9 28.6 75 -5.8 21.6
06:10 1016 30 845 24.95 -1.9 28.6 75 -5.7 21.8
06:15 1016 30 845 24.95 -1.9 28.6 75 -5.8 21.6
06:20 1016 30 845 24.95 -1.9 28.6 75 -5.7 21.8
06:25 1016 30 845 24.95 -1.8 28.7 75 -5.6 21.8
06:30 1016 30 845 24.95 -1.8 28.7 76 -5.5 22.1
06:35 1016 30 845 24.95 -1.8 28.8 76 -5.5 22.1
06:40 1016 30 845 24.95 -1.8 28.8 76 -5.4 22.3
06:45 1016 30 845 24.95 -1.8 28.8 77 -5.4 22.3
06:50 1016 30 845 24.95 -1.8 28.7 76 -5.4 22.2
06:55 1016 30 845 24.95 -1.8 28.8 76 -5.5 22.1
07:00 1016 30 845 24.95 -1.7 29 75 -5.5 22
07:05 1016 30 846 24.98 -1.7 29 74 -5.6 21.8
07:10 1016 30 846 24.98 -1.7 28.9 75 -5.7 21.8
07:15 1016 30 846 24.98 -1.7 28.9 75 -5.6 21.9
07:20 1016 30 846 24.98 -1.7 28.9 75 -5.6 21.9
07:25 1016 30 846 24.98 -1.7 28.9 75 -5.6 22
07:30 1017 30.03 846 24.98 -1.7 28.9 75 -5.6 21.9
07:35 1017 30.03 846 24.98 -1.8 28.8 75 -5.6 21.9
07:40 1017 30.03 846 24.98 -1.8 28.7 75 -5.7 21.8
07:45 1017 30.03 846 24.98 -1.8 28.8 75 -5.7 21.8
07:50 1017 30.03 846 24.98 -1.8 28.8 76 -5.5 22.1
07:55 1017 30.03 846 24.98 -1.8 28.8 76 -5.5 22.1
08:00 1017 30.03 846 24.98 -1.8 28.8 76 -5.5 22.1
08:05 1017 30.03 846 24.98 -1.7 28.9 76 -5.4 22.2
08:10 1017 30.03 846 24.98 -1.7 28.9 76 -5.4 22.3
08:15 1017 30.03 846 24.98 -1.7 28.9 77 -5.3 22.4
08:20 1017 30.03 846 24.98 -1.8 28.8 76 -5.4 22.3
08:25 1017 30.03 846 24.98 -1.8 28.7 78 -5.2 22.6
08:30 1017 30.03 847 25.01 -1.7 29 76 -5.4 22.4
08:35 1017 30.03 847 25.01 -1.7 28.9 77 -5.2 22.6
08:40 1017 30.03 847 25.01 -1.6 29.1 76 -5.3 22.5
08:45 1017 30.03 847 25.01 -1.6 29.2 77 -5.2 22.7
08:50 1017 30.03 847 25.01 -1.4 29.4 76 -5.2 22.7
08:55 1018 30.06 847 25.01 -1.3 29.7 75 -5.2 22.6
09:00 1018 30.06 847 25.01 -1.2 29.8 75 -5.2 22.7
09:05 1018 30.06 847 25.01 -1.2 29.9 73 -5.5 22.2
09:10 1018 30.06 847 25.01 -1.1 30 73 -5.4 22.2
09:15 1018 30.06 847 25.01 -1.1 30 72 -5.5 22.2
09:20 1018 30.06 847 25.01 -1.2 29.9 73 -5.4 22.3
09:25 1018 30.06 847 25.01 -1.2 29.8 73 -5.4 22.2
09:30 1018 30.06 847 25.01 -1.2 29.9 74 -5.3 22.5
09:35 1018 30.06 847 25.01 -1.1 30 74 -5.2 22.6
09:40 1018 30.06 847 25.01 -1.2 29.9 74 -5.2 22.6
09:45 1018 30.06 847 25.01 -1.2 29.8 73 -5.4 22.3
09:50 1018 30.06 847 25.01 -1.2 29.8 75 -5 23
09:55 1018 30.06 847 25.01 -1.3 29.6 76 -5.1 22.8
10:00 1018 30.06 847 25.01 -1.3 29.7 75 -5.2 22.7
10:05 1018 30.06 847 25.01 -1.2 29.9 75 -5.1 22.9
10:10 1018 30.06 847 25.01 -1.1 30 74 -5.1 22.8
10:15 1018 30.06 847 25.01 -1.1 30 73 -5.3 22.4
10:20 1018 30.06 848 25.04 -1.1 30.1 74 -5.1 22.9
10:25 1018 30.06 848 25.04 -1 30.1 74 -5.2 22.7
10:30 1018 30.06 848 25.04 -1.2 29.9 75 -5 22.9
10:35 1019 30.09 848 25.04 -1.2 29.9 74 -5.2 22.6
10:40 1019 30.09 848 25.04 -1 30.2 74 -5 23
10:45 1019 30.09 848 25.04 -0.9 30.4 74 -4.9 23.1
10:50 1019 30.09 848 25.04 -1 30.2 75 -4.9 23.2
10:55 1019 30.09 848 25.04 -1 30.2 75 -4.9 23.1
11:00 1019 30.09 848 25.04 -0.9 30.3 73 -5.1 22.8
11:05 1019 30.09 848 25.04 -1.1 30.1 75 -5 23
11:10 1019 30.09 848 25.04 -1.1 30.1 75 -5 23.1
11:15 1019 30.09 848 25.04 -1 30.3 75 -4.8 23.3
11:20 1019 30.09 848 25.04 -0.7 30.7 73 -5 23
11:25 1019 30.09 848 25.04 -0.7 30.8 72 -5.1 22.9
11:30 1019 30.09 848 25.04 -0.8 30.6 73 -4.9 23.1
11:35 1019 30.09 848 25.04 -0.7 30.7 72 -5.1 22.9
11:40 1019 30.09 848 25.04 -0.5 31.2 72 -5 23
11:45 1019 30.09 848 25.04 -0.4 31.4 70 -5.2 22.6
11:50 1019 30.09 848 25.04 -0.4 31.3 69 -5.5 22.1
11:55 1019 30.09 848 25.04 -0.3 31.4 69 -5.3 22.4
12:00 1019 30.09 848 25.04 -0.1 31.8 68 -5.3 22.5
12:05 1019 30.09 848 25.04 -0.1 31.9 68 -5.3 22.4
12:10 1019 30.09 848 25.04 0 32 68 -5.2 22.6
12:15 1019 30.09 848 25.04 -0.1 31.9 69 -5 23
12:20 1019 30.09 848 25.04 0.1 32.2 68 -5.1 22.7
12:25 1019 30.09 848 25.04 0.3 32.5 67 -5.2 22.6
12:30 1019 30.09 848 25.04 0.3 32.5 66 -5.3 22.5
12:35 1019 30.09 848 25.04 0.2 32.3 68 -5.1 22.8
12:40 1019 30.09 848 25.04 -0 32 69 -5.1 22.8
12:45 1019 30.09 848 25.04 -0.1 31.9 69 -5.1 22.9
12:50 1019 30.09 848 25.04 0 32.1 68 -5.1 22.8
12:55 1019 30.09 848 25.04 0.1 32.2 67 -5.2 22.6
13:00 1019 30.09 848 25.04 0.3 32.5 66 -5.4 22.4
13:05 1019 30.09 848 25.04 0.3 32.6 65 -5.5 22.1
13:10 1019 30.09 848 25.04 0.5 32.8 65 -5.3 22.4
13:15 1019 30.09 848 25.04 0.4 32.7 64 -5.7 21.8
13:20 1019 30.09 848 25.04 0.5 32.9 64 -5.5 22.2
13:25 1019 30.09 848 25.04 0.6 33.1 64 -5.5 22.1
13:30 1019 30.09 848 25.04 0.5 32.9 64 -5.6 21.9
13:35 1019 30.09 848 25.04 0.5 32.9 64 -5.6 21.9
13:40 1019 30.09 848 25.04 0.6 33.1 63 -5.5 22
13:45 1019 30.09 848 25.04 0.7 33.3 63 -5.4 22.2
13:50 1019 30.09 848 25.04 0.6 33.1 63 -5.8 21.6
13:55 1019 30.09 848 25.04 0.5 33 64 -5.6 22
14:00 1019 30.09 848 25.04 0.7 33.2 60 -6.2 20.9
14:05 1019 30.09 849 25.07 0.8 33.4 59 -6.4 20.5
14:10 1019 30.09 849 25.07 0.8 33.4 58 -6.5 20.3
14:15 1019 30.09 849 25.07 0.9 33.5 56 -6.9 19.5
14:20 1019 30.09 849 25.07 1.2 34.2 55 -6.8 19.7
14:25 1019 30.09 849 25.07 1.3 34.3 55 -6.9 19.6
14:30 1019 30.09 849 25.07 1.5 34.7 55 -6.7 19.9
14:35 1020 30.12 849 25.07 1.6 34.9 55 -6.6 20.1
14:40 1020 30.12 849 25.07 1.4 34.4 55 -6.6 20.1
14:45 1020 30.12 849 25.07 1 33.9 59 -6.2 20.9
14:50 1020 30.12 849 25.07 0.8 33.5 60 -6 21.2
14:55 1020 30.12 849 25.07 0.8 33.4 57 -6.7 19.9
15:00 1020 30.12 849 25.07 0.8 33.5 59 -6.3 20.6
15:05 1020 30.12 849 25.07 1 33.9 55 -7 19.4
15:10 1020 30.12 849 25.07 1.1 34 53 -7.3 18.8
15:15 1020 30.12 849 25.07 1.2 34.2 54 -7.1 19.3
15:20 1020 30.12 849 25.07 1.1 33.9 65 -4.7 23.5
15:25 1020 30.12 849 25.07 -0.2 31.7 71 -4.7 23.5
15:30 1020 30.12 849 25.07 -0.9 30.4 75 -4.8 23.3
15:35 1020 30.12 849 25.07 -1.2 29.8 77 -4.7 23.5
15:40 1020 30.12 849 25.07 -1.4 29.5 77 -4.9 23.1
15:45 1020 30.12 850 25.1 -1.5 29.3 77 -5 23
15:50 1020 30.12 850 25.1 -1.5 29.2 79 -4.8 23.4
15:55 1021 30.15 850 25.1 -1.6 29.1 78 -4.9 23.1
16:00 1021 30.15 850 25.1 -1.6 29.1 78 -5 23.1
16:05 1021 30.15 850 25.1 -1.5 29.3 75 -5.4 22.3
16:10 1021 30.15 850 25.1 -1.3 29.7 71 -5.9 21.4
16:15 1021 30.15 850 25.1 -1.1 30 72 -5.6 22
16:20 1021 30.15 850 25.1 -1.1 30 70 -6 21.3
16:25 1021 30.15 850 25.1 -1.3 29.7 70 -6.1 21
16:30 1021 30.15 850 25.1 -1.2 29.8 70 -6.1 21.1
16:35 1021 30.15 850 25.1 -1 30.1 67 -6.4 20.4
16:40 1021 30.15 850 25.1 -1.1 30.1 68 -6.2 20.9
16:45 1021 30.15 850 25.1 -1.1 30 70 -5.9 21.4
16:50 1021 30.15 850 25.1 -1.3 29.6 71 -6 21.2
16:55 1021 30.15 850 25.1 -1.5 29.3 70 -6.3 20.7
17:00 1021 30.15 850 25.1 -1.6 29.1 71 -6.2 20.9
17:05 1021 30.15 851 25.13 -1.8 28.8 72 -6.2 20.9
17:10 1021 30.15 851 25.13 -1.9 28.5 73 -6.2 20.8
17:15 1022 30.18 851 25.13 -2.1 28.2 74 -6.1 20.9
17:20 1022 30.18 851 25.13 -2.1 28.1 73 -6.3 20.7
17:25 1022 30.18 851 25.13 -2.2 28 73 -6.4 20.6
17:30 1022 30.18 851 25.13 -2.1 28.1 71 -6.7 19.9
17:35 1022 30.18 851 25.13 -2 28.3 71 -6.5 20.2
17:40 1022 30.18 851 25.13 -2.2 28.1 73 -6.4 20.6
17:45 1022 30.18 851 25.13 -2.3 27.9 74 -6.4 20.6
17:50 1022 30.18 851 25.13 -2.4 27.7 76 -6.1 21
17:55 1022 30.18 851 25.13 -2.4 27.8 75 -6.2 20.8
18:00 1022 30.18 851 25.13 -2.3 27.9 76 -6 21.3
18:05 1022 30.18 851 25.13 -2.1 28.1 75 -6 21.2
18:10 1022 30.18 851 25.13 -2 28.5 75 -5.8 21.6
18:15 1022 30.18 851 25.13 -2 28.5 75 -5.8 21.5
18:20 1022 30.18 852 25.16 -2.2 28.1 75 -6.1 21.1
18:25 1022 30.18 852 25.16 -2.4 27.6 78 -5.8 21.5
18:30 1023 30.21 852 25.16 -2.9 26.7 79 -6.1 21
18:35 1023 30.21 852 25.16 -3.3 26.1 80 -6.3 20.7
18:40 1023 30.21 852 25.16 -3.5 25.7 79 -6.7 20
18:45 1023 30.21 852 25.16 -3.7 25.4 80 -6.7 19.9
18:50 1023 30.21 852 25.16 -3.9 25 80 -6.8 19.7
18:55 1023 30.21 852 25.16 -4 24.9 80 -6.9 19.6
19:00 1023 30.21 852 25.16 -4.1 24.7 80 -7 19.5
19:05 1023 30.21 852 25.16 -4.2 24.4 81 -7.1 19.3
19:10 1023 30.21 852 25.16 -4.2 24.4 80 -7.1 19.2
19:15 1023 30.21 852 25.16 -4.2 24.4 81 -7.1 19.3
19:20 1023 30.21 852 25.16 -4.3 24.3 81 -7 19.4
19:25 1023 30.21 852 25.16 -4.2 24.4 81 -6.9 19.5
19:30 1023 30.21 852 25.16 -4.2 24.5 82 -6.9 19.6
19:35 1023 30.21 852 25.16 -4.2 24.5 81 -7 19.4
19:40 1023 30.21 852 25.16 -4.1 24.7 79 -7.2 19
19:45 1023 30.21 852 25.16 -4 24.8 79 -7.1 19.3
19:50 1023 30.21 852 25.16 -4.1 24.6 80 -7 19.4
19:55 1023 30.21 852 25.16 -4.1 24.7 80 -7.1 19.2
20:00 1023 30.21 852 25.16 -4.2 24.5 79 -7.3 18.8
20:05 1023 30.21 852 25.16 -4.3 24.3 80 -7.3 18.9
20:10 1023 30.21 853 25.19 -4.2 24.4 80 -7.2 19
20:15 1023 30.21 853 25.19 -4.2 24.5 80 -7.2 19
20:20 1023 30.21 853 25.19 -4.2 24.5 80 -7.2 19
20:25 1023 30.21 853 25.19 -4.2 24.5 79 -7.2 19
20:30 1023 30.21 853 25.19 -4.2 24.5 80 -7.2 19.1
20:35 1024 30.24 853 25.19 -4.1 24.6 79 -7.2 19.1
20:40 1024 30.24 853 25.19 -4.1 24.6 79 -7.2 19.1
20:45 1024 30.24 853 25.19 -4 24.8 79 -7.1 19.2
20:50 1024 30.24 853 25.19 -3.9 25 79 -7 19.4
20:55 1024 30.24 853 25.19 -3.8 25.2 79 -6.9 19.5
21:00 1024 30.24 853 25.19 -3.7 25.4 78 -6.9 19.6
21:05 1024 30.24 853 25.19 -3.6 25.6 78 -6.8 19.7
21:10 1024 30.24 853 25.19 -3.6 25.6 79 -6.7 19.9
21:15 1024 30.24 853 25.19 -3.7 25.4 79 -6.9 19.6
21:20 1024 30.24 853 25.19 -3.7 25.4 79 -6.8 19.7
21:25 1024 30.24 853 25.19 -3.7 25.3 78 -7 19.5
21:30 1024 30.24 853 25.19 -3.7 25.4 79 -6.9 19.7
21:35 1024 30.24 853 25.19 -3.7 25.4 78 -6.9 19.6
21:40 1024 30.24 853 25.19 -3.6 25.4 78 -6.9 19.5
21:45 1024 30.24 853 25.19 -3.6 25.5 78 -6.9 19.6
21:50 1024 30.24 853 25.19 -3.6 25.5 79 -6.8 19.8
21:55 1024 30.24 853 25.19 -3.6 25.5 78 -7 19.5
22:00 1024 30.24 853 25.19 -3.5 25.6 78 -6.8 19.7
22:05 1024 30.24 853 25.19 -3.6 25.4 78 -6.9 19.6
22:10 1024 30.24 853 25.19 -3.6 25.5 78 -6.9 19.5
22:15 1024 30.24 853 25.19 -3.7 25.4 78 -7 19.4
22:20 1024 30.24 853 25.19 -3.6 25.5 78 -7 19.5
22:25 1024 30.24 853 25.19 -3.7 25.4 78 -6.9 19.6
22:30 1024 30.24 853 25.19 -3.7 25.3 79 -6.9 19.7
22:35 1024 30.24 853 25.19 -3.8 25.1 79 -6.9 19.6
22:40 1024 30.24 853 25.19 -3.8 25.1 79 -7 19.4
22:45 1024 30.24 853 25.19 -3.8 25.1 79 -7 19.4
22:50 1024 30.24 853 25.19 -3.8 25.1 79 -7 19.3
22:55 1024 30.24 853 25.19 -3.9 25 79 -7.1 19.3
23:00 1024 30.24 853 25.19 -4 24.9 79 -7 19.3
23:05 1024 30.24 853 25.19 -4 24.8 79 -7.1 19.3
23:10 1024 30.24 853 25.19 -4 24.7 79 -7.1 19.2
23:15 1024 30.24 853 25.19 -4.1 24.7 79 -7.1 19.2
23:20 1024 30.24 854 25.22 -4 24.7 79 -7.1 19.2
23:25 1024 30.24 854 25.22 -4 24.7 79 -7.2 19.1
23:30 1024 30.24 854 25.22 -4.1 24.6 79 -7.1 19.2
23:35 1024 30.24 854 25.22 -4.1 24.6 79 -7.2 19.1
23:40 1025 30.27 854 25.22 -4.1 24.7 79 -7.1 19.2
23:45 1025 30.27 854 25.22 -4.1 24.6 80 -7.1 19.2
23:50 1025 30.27 854 25.22 -4.2 24.5 79 -7.2 19
23:55 1025 30.27 854 25.22 -4.2 24.5 79 -7.3 18.9
24:00 1025 30.27 854 25.22 -4.2 24.4 79 -7.3 18.9